TimeEDT,TemperatureF,Dew PointF,Humidity,Sea Level PressureIn,VisibilityMPH,Wind Direction,Wind SpeedMPH,Gust SpeedMPH,PrecipitationIn,Events,Conditions,WindDirDegrees,DateUTC
12:15 AM,71.6,66.2,83,29.86,7.0,SW,4.6,-,N/A,,Mostly Cloudy,230,2013-10-18 04:15:00
12:35 AM,71.6,66.2,83,29.86,10.0,WSW,3.5,-,N/A,,Scattered Clouds,240,2013-10-18 04:35:00
12:55 AM,69.8,68.0,94,29.86,10.0,SW,3.5,-,N/A,,Scattered Clouds,230,2013-10-18 04:55:00
1:15 AM,71.6,68.0,88,29.87,10.0,WSW,5.8,-,N/A,,Mostly Cloudy,250,2013-10-18 05:15:00
1:35 AM,71.6,68.0,88,29.87,10.0,West,5.8,-,N/A,,Overcast,270,2013-10-18 05:35:00
1:55 AM,71.6,66.2,83,29.87,10.0,WSW,5.8,-,N/A,,Overcast,250,2013-10-18 05:55:00
2:15 AM,69.8,66.2,88,29.88,10.0,West,8.1,-,N/A,,Mostly Cloudy,270,2013-10-18 06:15:00
2:35 AM,69.8,66.2,88,29.88,10.0,West,8.1,-,N/A,,Scattered Clouds,270,2013-10-18 06:35:00
2:55 AM,69.8,66.2,88,29.88,10.0,West,9.2,-,N/A,,Scattered Clouds,270,2013-10-18 06:55:00
3:15 AM,68.0,66.2,94,29.88,10.0,West,5.8,-,N/A,,Scattered Clouds,280,2013-10-18 07:15:00
3:35 AM,66.2,66.2,100,29.88,10.0,WNW,5.8,-,N/A,,Clear,300,2013-10-18 07:35:00
3:55 AM,66.2,66.2,100,29.89,10.0,West,5.8,-,N/A,,Clear,280,2013-10-18 07:55:00
4:15 AM,66.2,66.2,100,29.89,10.0,NW,4.6,-,N/A,,Scattered Clouds,310,2013-10-18 08:15:00
4:35 AM,66.2,66.2,100,29.90,10.0,WNW,6.9,-,N/A,,Scattered Clouds,300,2013-10-18 08:35:00
4:55 AM,64.4,64.4,100,29.91,10.0,NW,5.8,-,N/A,,Scattered Clouds,310,2013-10-18 08:55:00
5:15 AM,64.4,62.6,94,29.91,10.0,NW,3.5,-,N/A,,Scattered Clouds,320,2013-10-18 09:15:00
5:35 AM,64.4,60.8,88,29.93,10.0,WNW,5.8,-,N/A,,Scattered Clouds,300,2013-10-18 09:35:00
5:55 AM,62.6,60.8,94,29.93,10.0,NW,3.5,-,N/A,,Scattered Clouds,310,2013-10-18 09:55:00
6:15 AM,62.6,59.0,88,29.94,10.0,WNW,4.6,-,N/A,,Mostly Cloudy,300,2013-10-18 10:15:00
6:35 AM,62.6,57.2,82,29.94,10.0,WNW,5.8,-,N/A,,Mostly Cloudy,300,2013-10-18 10:35:00
6:55 AM,60.8,57.2,88,29.95,10.0,Calm,Calm,-,N/A,,Mostly Cloudy,0,2013-10-18 10:55:00
7:15 AM,60.8,55.4,82,29.96,10.0,Calm,Calm,-,N/A,,Scattered Clouds,0,2013-10-18 11:15:00
7:35 AM,59.0,55.4,88,29.97,10.0,WNW,3.5,-,N/A,,Clear,290,2013-10-18 11:35:00
7:55 AM,59.0,57.2,94,29.97,10.0,NW,3.5,-,N/A,,Clear,310,2013-10-18 11:55:00
8:15 AM,60.8,57.2,88,29.98,10.0,Calm,Calm,-,N/A,,Clear,0,2013-10-18 12:15:00
8:35 AM,60.8,57.2,88,30.00,10.0,NW,4.6,-,N/A,,Clear,310,2013-10-18 12:35:00
8:55 AM,62.6,57.2,82,30.01,10.0,NNW,4.6,-,N/A,,Scattered Clouds,340,2013-10-18 12:55:00
9:15 AM,62.6,57.2,82,30.01,10.0,North,4.6,-,N/A,,Mostly Cloudy,10,2013-10-18 13:15:00
9:35 AM,64.4,57.2,77,30.02,10.0,NE,5.8,-,N/A,,Overcast,50,2013-10-18 13:35:00
9:55 AM,64.4,55.4,73,30.03,10.0,NNE,8.1,-,N/A,,Overcast,30,2013-10-18 13:55:00
10:15 AM,66.2,53.6,64,30.04,10.0,North,5.8,-,N/A,,Overcast,350,2013-10-18 14:15:00
10:35 AM,66.2,51.8,60,30.04,10.0,NE,8.1,-,N/A,,Overcast,40,2013-10-18 14:35:00
10:55 AM,66.2,51.8,60,30.04,10.0,ENE,6.9,-,N/A,,Overcast,60,2013-10-18 14:55:00
11:15 AM,66.2,51.8,60,30.04,10.0,ENE,4.6,-,N/A,,Overcast,60,2013-10-18 15:15:00
11:21 AM,66.2,51.8,60,30.04,10.0,Calm,Calm,-,N/A,,Overcast,0,2013-10-18 15:21:00
11:35 AM,66.2,51.8,60,30.04,10.0,NE,4.6,-,N/A,,Overcast,50,2013-10-18 15:35:00
11:55 AM,68.0,51.8,56,30.04,10.0,East,3.5,-,N/A,,Overcast,90,2013-10-18 15:55:00
12:01 PM,68.0,51.8,56,30.04,10.0,East,4.6,-,N/A,,Overcast,80,2013-10-18 16:01:00
12:15 PM,68.0,51.8,56,30.03,10.0,ESE,3.5,-,N/A,,Scattered Clouds,110,2013-10-18 16:15:00
12:21 PM,69.8,51.8,53,30.03,10.0,NE,3.5,-,N/A,,Mostly Cloudy,50,2013-10-18 16:21:00
12:35 PM,69.8,51.8,53,30.02,10.0,East,4.6,-,N/A,,Scattered Clouds,80,2013-10-18 16:35:00
12:41 PM,69.8,51.8,53,30.02,10.0,Calm,Calm,-,N/A,,Scattered Clouds,0,2013-10-18 16:41:00
12:55 PM,69.8,51.8,53,30.02,10.0,Calm,Calm,-,N/A,,Clear,0,2013-10-18 16:55:00
1:01 PM,69.8,51.8,53,30.02,10.0,Calm,Calm,-,N/A,,Clear,0,2013-10-18 17:01:00
1:15 PM,69.8,51.8,53,30.02,10.0,Calm,Calm,-,N/A,,Scattered Clouds,0,2013-10-18 17:15:00
1:21 PM,69.8,51.8,53,30.01,10.0,Calm,Calm,-,N/A,,Scattered Clouds,0,2013-10-18 17:21:00
1:35 PM,69.8,51.8,53,30.01,10.0,Calm,Calm,-,N/A,,Mostly Cloudy,0,2013-10-18 17:35:00
1:55 PM,69.8,51.8,53,30.00,10.0,Calm,Calm,-,N/A,,Overcast,0,2013-10-18 17:55:00
2:15 PM,71.6,53.6,53,29.99,10.0,Calm,Calm,-,N/A,,Overcast,0,2013-10-18 18:15:00
2:21 PM,71.6,51.8,50,29.99,10.0,Calm,Calm,-,N/A,,Overcast,0,2013-10-18 18:21:00
2:35 PM,71.6,51.8,50,29.99,10.0,Calm,Calm,-,N/A,,Overcast,0,2013-10-18 18:35:00
2:37 PM,71.6,51.8,50,29.99,10.0,Calm,Calm,-,N/A,,Overcast,0,2013-10-18 18:37:00
2:55 PM,71.6,53.6,53,29.98,10.0,SE,4.6,-,N/A,,Overcast,140,2013-10-18 18:55:00
3:15 PM,73.4,53.6,50,29.98,10.0,WNW,4.6,-,N/A,,Overcast,300,2013-10-18 19:15:00
3:35 PM,71.6,53.6,53,29.98,10.0,SSE,3.5,-,N/A,,Overcast,160,2013-10-18 19:35:00
3:55 PM,71.6,53.6,53,29.97,10.0,Calm,Calm,-,N/A,,Overcast,0,2013-10-18 19:55:00
4:15 PM,71.6,53.6,53,29.98,10.0,Calm,Calm,-,N/A,,Overcast,0,2013-10-18 20:15:00
4:35 PM,71.6,53.6,53,29.98,10.0,Calm,Calm,-,N/A,,Overcast,0,2013-10-18 20:35:00
4:55 PM,71.6,55.4,57,29.98,10.0,Calm,Calm,-,N/A,,Mostly Cloudy,0,2013-10-18 20:55:00
5:15 PM,71.6,55.4,57,29.98,10.0,Calm,Calm,-,N/A,,Mostly Cloudy,0,2013-10-18 21:15:00
5:35 PM,69.8,57.2,64,29.98,10.0,South,5.8,-,N/A,,Mostly Cloudy,170,2013-10-18 21:35:00
5:55 PM,69.8,59.0,68,29.98,10.0,South,3.5,-,N/A,,Mostly Cloudy,170,2013-10-18 21:55:00
6:15 PM,68.0,59.0,73,29.98,10.0,South,3.5,-,N/A,,Mostly Cloudy,170,2013-10-18 22:15:00
6:35 PM,66.2,59.0,78,29.99,10.0,SSE,3.5,-,N/A,,Scattered Clouds,160,2013-10-18 22:35:00
6:55 PM,64.4,60.8,88,29.99,10.0,Calm,Calm,-,N/A,,Mostly Cloudy,0,2013-10-18 22:55:00
7:15 PM,66.2,60.8,83,30.00,10.0,Calm,Calm,-,N/A,,Mostly Cloudy,0,2013-10-18 23:15:00
7:35 PM,64.4,60.8,88,30.00,10.0,South,3.5,-,N/A,,Mostly Cloudy,170,2013-10-18 23:35:00
7:55 PM,64.4,60.8,88,30.00,10.0,Calm,Calm,-,N/A,,Scattered Clouds,0,2013-10-18 23:55:00
8:15 PM,64.4,60.8,88,30.00,10.0,Calm,Calm,-,N/A,,Clear,0,2013-10-19 00:15:00
8:35 PM,62.6,59.0,88,30.00,10.0,Calm,Calm,-,N/A,,Clear,0,2013-10-19 00:35:00
8:55 PM,60.8,59.0,94,30.00,10.0,Calm,Calm,-,N/A,,Clear,0,2013-10-19 00:55:00
9:15 PM,60.8,59.0,94,30.01,10.0,Calm,Calm,-,N/A,,Clear,0,2013-10-19 01:15:00
9:35 PM,60.8,60.8,100,30.02,10.0,Calm,Calm,-,N/A,,Scattered Clouds,0,2013-10-19 01:35:00
9:55 PM,60.8,60.8,100,30.02,10.0,Calm,Calm,-,N/A,,Overcast,0,2013-10-19 01:55:00
10:15 PM,60.8,60.8,100,30.02,10.0,Calm,Calm,-,N/A,,Mostly Cloudy,0,2013-10-19 02:15:00
10:35 PM,60.8,59.0,94,30.02,10.0,Calm,Calm,-,N/A,,Scattered Clouds,0,2013-10-19 02:35:00
10:55 PM,60.8,60.8,100,30.02,10.0,Calm,Calm,-,N/A,,Scattered Clouds,0,2013-10-19 02:55:00
11:15 PM,60.8,60.8,100,30.02,10.0,Calm,Calm,-,N/A,,Mostly Cloudy,0,2013-10-19 03:15:00
11:35 PM,60.8,60.8,100,30.02,10.0,Calm,Calm,-,N/A,,Overcast,0,2013-10-19 03:35:00
11:55 PM,60.8,60.8,100,30.01,10.0,Calm,Calm,-,N/A,,Overcast,0,2013-10-19 03:55:00